sensor_id;sensor_type;location;lat;lon;timestamp;pressure;altitude;pressure_sealevel;temperature;humidity
61710;BME280;47633;51.494;5.386;2023-01-26T00:02:15;102443.50;;;18.12;40.40
61710;BME280;47633;51.494;5.386;2023-01-26T00:04:40;102447.06;;;18.11;40.25
61710;BME280;47633;51.494;5.386;2023-01-26T00:07:05;102441.84;;;18.10;40.24
61710;BME280;47633;51.494;5.386;2023-01-26T00:09:30;102439.31;;;18.08;40.42
61710;BME280;47633;51.494;5.386;2023-01-26T00:11:56;102434.13;;;18.07;40.37
61710;BME280;47633;51.494;5.386;2023-01-26T00:14:21;102439.22;;;18.10;40.30
61710;BME280;47633;51.494;5.386;2023-01-26T00:16:46;102437.53;;;18.09;40.08
61710;BME280;47633;51.494;5.386;2023-01-26T00:19:11;102427.16;;;18.06;40.29
61710;BME280;47633;51.494;5.386;2023-01-26T00:21:37;102421.19;;;18.02;40.19
61710;BME280;47633;51.494;5.386;2023-01-26T00:24:02;102422.03;;;18.03;40.21
61710;BME280;47633;51.494;5.386;2023-01-26T00:26:28;102418.63;;;18.01;40.05
61710;BME280;47633;51.494;5.386;2023-01-26T00:28:54;102416.19;;;17.98;40.21
61710;BME280;47633;51.494;5.386;2023-01-26T00:31:24;102424.00;;;17.99;40.22
61710;BME280;47633;51.494;5.386;2023-01-26T00:33:51;102422.31;;;17.98;40.41
61710;BME280;47633;51.494;5.386;2023-01-26T00:36:17;102411.75;;;17.98;40.26
61710;BME280;47633;51.494;5.386;2023-01-26T00:38:42;102406.56;;;17.97;40.52
61710;BME280;47633;51.494;5.386;2023-01-26T00:41:08;102412.50;;;18.00;40.47
61710;BME280;47633;51.494;5.386;2023-01-26T00:43:54;102401.47;;;17.93;40.65
61710;BME280;47633;51.494;5.386;2023-01-26T00:46:19;102403.09;;;17.96;40.38
61710;BME280;47633;51.494;5.386;2023-01-26T00:48:44;102408.19;;;17.99;40.34
61710;BME280;47633;51.494;5.386;2023-01-26T00:51:10;102397.81;;;17.96;40.34
61710;BME280;47633;51.494;5.386;2023-01-26T00:53:35;102399.50;;;17.97;40.49
61710;BME280;47633;51.494;5.386;2023-01-26T00:56:00;102390.06;;;17.93;40.44
61710;BME280;47633;51.494;5.386;2023-01-26T00:58:26;102383.06;;;17.92;40.36
61710;BME280;47633;51.494;5.386;2023-01-26T01:00:52;102375.16;;;17.92;40.47
61710;BME280;47633;51.494;5.386;2023-01-26T01:03:17;102377.81;;;17.92;40.44
61710;BME280;47633;51.494;5.386;2023-01-26T01:05:42;102377.97;;;17.89;40.66
61710;BME280;47633;51.494;5.386;2023-01-26T01:08:07;102380.34;;;17.93;40.38
61710;BME280;47633;51.494;5.386;2023-01-26T01:10:33;102378.81;;;17.89;40.56
61710;BME280;47633;51.494;5.386;2023-01-26T01:12:58;102372.59;;;17.90;40.54
61710;BME280;47633;51.494;5.386;2023-01-26T01:15:24;102372.59;;;17.90;40.39
61710;BME280;47633;51.494;5.386;2023-01-26T01:17:50;102368.25;;;17.89;40.35
61710;BME280;47633;51.494;5.386;2023-01-26T01:20:15;102377.88;;;17.90;40.44
61710;BME280;47633;51.494;5.386;2023-01-26T01:22:41;102381.38;;;17.91;40.83
61710;BME280;47633;51.494;5.386;2023-01-26T01:25:06;102378.28;;;17.83;40.62
61710;BME280;47633;51.494;5.386;2023-01-26T01:27:32;102385.09;;;17.87;40.71
61710;BME280;47633;51.494;5.386;2023-01-26T01:29:57;102372.75;;;17.87;40.57
61710;BME280;47633;51.494;5.386;2023-01-26T01:32:22;102370.19;;;17.86;40.54
61710;BME280;47633;51.494;5.386;2023-01-26T01:34:48;102374.53;;;17.87;40.62
61710;BME280;47633;51.494;5.386;2023-01-26T01:37:14;102372.84;;;17.86;40.75
61710;BME280;47633;51.494;5.386;2023-01-26T01:39:40;102368.41;;;17.86;40.76
61710;BME280;47633;51.494;5.386;2023-01-26T01:42:06;102378.09;;;17.86;40.77
61710;BME280;47633;51.494;5.386;2023-01-26T01:44:34;102376.59;;;17.82;40.83
61710;BME280;47633;51.494;5.386;2023-01-26T01:47:15;102373.00;;;17.83;40.51
61710;BME280;47633;51.494;5.386;2023-01-26T01:49:49;102378.19;;;17.84;40.68
61710;BME280;47633;51.494;5.386;2023-01-26T01:52:28;102375.56;;;17.84;40.40
61710;BME280;47633;51.494;5.386;2023-01-26T01:55:07;102380.00;;;17.84;40.72
61710;BME280;47633;51.494;5.386;2023-01-26T01:57:38;102379.31;;;17.80;40.79
61710;BME280;47633;51.494;5.386;2023-01-26T02:00:19;102388.81;;;17.83;40.71
61710;BME280;47633;51.494;5.386;2023-01-26T02:02:57;102370.78;;;17.75;40.71
61710;BME280;47633;51.494;5.386;2023-01-26T02:05:48;102373.16;;;17.80;40.71
61710;BME280;47633;51.494;5.386;2023-01-26T02:08:17;102362.78;;;17.76;40.60
61710;BME280;47633;51.494;5.386;2023-01-26T02:10:48;102369.69;;;17.79;40.48
61710;BME280;47633;51.494;5.386;2023-01-26T02:13:15;102376.75;;;17.79;40.52
61710;BME280;47633;51.494;5.386;2023-01-26T02:15:42;102370.63;;;17.78;40.44
61710;BME280;47633;51.494;5.386;2023-01-26T02:18:08;102361.94;;;17.76;40.94
61710;BME280;47633;51.494;5.386;2023-01-26T02:23:14;102355.50;;;17.82;40.79
61710;BME280;47633;51.494;5.386;2023-01-26T02:25:55;102346.13;;;17.76;40.63
61710;BME280;47633;51.494;5.386;2023-01-26T02:28:24;102345.47;;;17.72;40.57
61710;BME280;47633;51.494;5.386;2023-01-26T02:30:49;102344.50;;;17.73;40.95
61710;BME280;47633;51.494;5.386;2023-01-26T02:33:21;102350.66;;;17.74;40.77
61710;BME280;47633;51.494;5.386;2023-01-26T02:35:47;102346.31;;;17.73;40.64
61710;BME280;47633;51.494;5.386;2023-01-26T02:38:12;102349.03;;;17.71;40.68
61710;BME280;47633;51.494;5.386;2023-01-26T02:40:47;102346.38;;;17.71;40.93
61710;BME280;47633;51.494;5.386;2023-01-26T02:43:15;102348.19;;;17.71;41.07
61710;BME280;47633;51.494;5.386;2023-01-26T02:45:40;102350.97;;;17.68;40.77
61710;BME280;47633;51.494;5.386;2023-01-26T02:48:07;102336.09;;;17.67;40.93
61710;BME280;47633;51.494;5.386;2023-01-26T02:50:33;102346.63;;;17.67;40.93
61710;BME280;47633;51.494;5.386;2023-01-26T02:52:59;102337.06;;;17.66;40.88
61710;BME280;47633;51.494;5.386;2023-01-26T02:55:24;102334.50;;;17.64;40.97
61710;BME280;47633;51.494;5.386;2023-01-26T02:57:56;102338.72;;;17.67;40.88
61710;BME280;47633;51.494;5.386;2023-01-26T03:00:27;102331.94;;;17.63;41.04
61710;BME280;47633;51.494;5.386;2023-01-26T03:02:54;102331.94;;;17.63;40.94
61710;BME280;47633;51.494;5.386;2023-01-26T03:05:20;102333.47;;;17.67;40.89
61710;BME280;47633;51.494;5.386;2023-01-26T03:07:46;102324.88;;;17.63;40.82
61710;BME280;47633;51.494;5.386;2023-01-26T03:10:11;102343.25;;;17.65;40.83
61710;BME280;47633;51.494;5.386;2023-01-26T03:12:37;102331.84;;;17.64;41.03
61710;BME280;47633;51.494;5.386;2023-01-26T03:15:03;102323.25;;;17.61;40.63
61710;BME280;47633;51.494;5.386;2023-01-26T03:18:06;102328.34;;;17.64;41.05
61710;BME280;47633;51.494;5.386;2023-01-26T03:21:03;102329.31;;;17.63;41.11
61710;BME280;47633;51.494;5.386;2023-01-26T03:23:47;102340.69;;;17.63;41.08
61710;BME280;47633;51.494;5.386;2023-01-26T03:26:31;102335.59;;;17.60;41.08
61710;BME280;47633;51.494;5.386;2023-01-26T03:29:15;102322.56;;;17.57;40.96
61710;BME280;47633;51.494;5.386;2023-01-26T03:31:40;102324.28;;;17.58;40.86
61710;BME280;47633;51.494;5.386;2023-01-26T03:34:06;102325.22;;;17.57;41.14
61710;BME280;47633;51.494;5.386;2023-01-26T03:36:31;102329.41;;;17.61;41.16
61710;BME280;47633;51.494;5.386;2023-01-26T03:38:56;102321.75;;;17.56;41.01
61710;BME280;47633;51.494;5.386;2023-01-26T03:41:22;102330.47;;;17.57;41.22
61710;BME280;47633;51.494;5.386;2023-01-26T03:44:06;102330.41;;;17.58;41.26
61710;BME280;47633;51.494;5.386;2023-01-26T03:46:50;102320.78;;;17.57;40.97
61710;BME280;47633;51.494;5.386;2023-01-26T03:49:34;102312.88;;;17.57;40.83
61710;BME280;47633;51.494;5.386;2023-01-26T03:52:18;102325.13;;;17.58;41.06
61710;BME280;47633;51.494;5.386;2023-01-26T03:55:02;102324.38;;;17.56;41.13
61710;BME280;47633;51.494;5.386;2023-01-26T03:57:47;102323.41;;;17.57;41.13
61710;BME280;47633;51.494;5.386;2023-01-26T04:00:13;102306.94;;;17.54;41.24
61710;BME280;47633;51.494;5.386;2023-01-26T04:02:39;102311.28;;;17.55;40.86
61710;BME280;47633;51.494;5.386;2023-01-26T04:05:23;102313.81;;;17.56;41.31
61710;BME280;47633;51.494;5.386;2023-01-26T04:08:07;102306.16;;;17.52;40.90
61710;BME280;47633;51.494;5.386;2023-01-26T04:10:49;102306.25;;;17.50;41.01
61710;BME280;47633;51.494;5.386;2023-01-26T04:13:17;102314.00;;;17.53;41.12
61710;BME280;47633;51.494;5.386;2023-01-26T04:16:02;102311.53;;;17.50;41.24
61710;BME280;47633;51.494;5.386;2023-01-26T04:18:46;102318.56;;;17.50;41.24
61710;BME280;47633;51.494;5.386;2023-01-26T04:21:30;102318.41;;;17.53;41.47
61710;BME280;47633;51.494;5.386;2023-01-26T04:24:01;102316.72;;;17.52;41.23
61710;BME280;47633;51.494;5.386;2023-01-26T04:26:30;102307.19;;;17.49;41.17
61710;BME280;47633;51.494;5.386;2023-01-26T04:29:06;102315.19;;;17.48;41.25
61710;BME280;47633;51.494;5.386;2023-01-26T04:31:32;102309.81;;;17.49;41.44
61710;BME280;47633;51.494;5.386;2023-01-26T04:34:02;102305.50;;;17.48;41.55
61710;BME280;47633;51.494;5.386;2023-01-26T04:36:28;102307.25;;;17.48;41.62
61710;BME280;47633;51.494;5.386;2023-01-26T04:38:54;102308.13;;;17.48;41.22
61710;BME280;47633;51.494;5.386;2023-01-26T04:41:19;102303.69;;;17.49;41.44
61710;BME280;47633;51.494;5.386;2023-01-26T04:43:44;102308.03;;;17.50;41.40
61710;BME280;47633;51.494;5.386;2023-01-26T04:46:09;102307.09;;;17.51;41.28
61710;BME280;47633;51.494;5.386;2023-01-26T04:48:35;102312.38;;;17.51;41.44
61710;BME280;47633;51.494;5.386;2023-01-26T04:51:05;102298.53;;;17.47;41.69
61710;BME280;47633;51.494;5.386;2023-01-26T04:53:32;102307.94;;;17.51;41.65
61710;BME280;47633;51.494;5.386;2023-01-26T04:55:58;102309.66;;;17.52;41.57
61710;BME280;47633;51.494;5.386;2023-01-26T04:58:23;102309.91;;;17.48;41.79
61710;BME280;47633;51.494;5.386;2023-01-26T05:00:53;102309.06;;;17.47;41.74
61710;BME280;47633;51.494;5.386;2023-01-26T05:03:18;102305.50;;;17.48;41.80
61710;BME280;47633;51.494;5.386;2023-01-26T05:05:47;102306.16;;;17.52;41.98
61710;BME280;47633;51.494;5.386;2023-01-26T05:08:14;102308.81;;;17.52;42.15
61710;BME280;47633;51.494;5.386;2023-01-26T05:10:40;102317.56;;;17.52;41.73
61710;BME280;47633;51.494;5.386;2023-01-26T05:13:05;102302.88;;;17.48;41.85
61710;BME280;47633;51.494;5.386;2023-01-26T05:15:31;102306.34;;;17.49;41.91
61710;BME280;47633;51.494;5.386;2023-01-26T05:17:57;102303.53;;;17.52;42.02
61710;BME280;47633;51.494;5.386;2023-01-26T05:20:24;102306.34;;;17.49;41.79
61710;BME280;47633;51.494;5.386;2023-01-26T05:22:49;102307.00;;;17.52;41.85
61710;BME280;47633;51.494;5.386;2023-01-26T05:25:14;102314.91;;;17.52;42.04
61710;BME280;47633;51.494;5.386;2023-01-26T05:27:39;102299.34;;;17.48;41.87
61710;BME280;47633;51.494;5.386;2023-01-26T05:30:05;102308.13;;;17.48;41.81
61710;BME280;47633;51.494;5.386;2023-01-26T05:32:31;102304.72;;;17.46;41.86
61710;BME280;47633;51.494;5.386;2023-01-26T05:34:56;102309.22;;;17.44;41.62
61710;BME280;47633;51.494;5.386;2023-01-26T05:37:25;102308.22;;;17.47;41.23
61710;BME280;47633;51.494;5.386;2023-01-26T05:39:51;102306.34;;;17.49;40.97
61710;BME280;47633;51.494;5.386;2023-01-26T05:42:16;102319.19;;;17.55;40.64
61710;BME280;47633;51.494;5.386;2023-01-26T05:44:42;102310.31;;;17.56;40.44
61710;BME280;47633;51.494;5.386;2023-01-26T05:47:07;102320.53;;;17.62;39.97
61710;BME280;47633;51.494;5.386;2023-01-26T05:49:32;102315.16;;;17.64;40.35
61710;BME280;47633;51.494;5.386;2023-01-26T05:51:58;102320.00;;;17.71;40.02
61710;BME280;47633;51.494;5.386;2023-01-26T05:54:23;102318.13;;;17.73;39.99
61710;BME280;47633;51.494;5.386;2023-01-26T05:56:49;102316.19;;;17.77;39.83
61710;BME280;47633;51.494;5.386;2023-01-26T05:59:14;102314.22;;;17.81;39.87
61710;BME280;47633;51.494;5.386;2023-01-26T06:01:40;102316.53;;;17.87;39.97
61710;BME280;47633;51.494;5.386;2023-01-26T06:04:05;102306.41;;;17.79;39.83
61710;BME280;47633;51.494;5.386;2023-01-26T06:06:30;102323.25;;;17.92;39.77
61710;BME280;47633;51.494;5.386;2023-01-26T06:08:57;102317.22;;;17.90;39.75
61710;BME280;47633;51.494;5.386;2023-01-26T06:11:22;102321.31;;;17.96;39.67
61710;BME280;47633;51.494;5.386;2023-01-26T06:13:47;102321.31;;;17.96;39.81
61710;BME280;47633;51.494;5.386;2023-01-26T06:16:13;102322.91;;;17.99;39.73
61710;BME280;47633;51.494;5.386;2023-01-26T06:18:38;102325.53;;;17.99;39.87
61710;BME280;47633;51.494;5.386;2023-01-26T06:21:04;102326.22;;;18.02;39.76
61710;BME280;47633;51.494;5.386;2023-01-26T06:23:29;102336.00;;;18.00;39.53
61710;BME280;47633;51.494;5.386;2023-01-26T06:26:04;102335.56;;;18.08;39.83
61710;BME280;47633;51.494;5.386;2023-01-26T06:28:30;102325.84;;;18.08;39.80
61710;BME280;47633;51.494;5.386;2023-01-26T06:30:59;102329.38;;;18.09;39.68
61710;BME280;47633;51.494;5.386;2023-01-26T06:33:25;102338.03;;;18.11;39.80
61710;BME280;47633;51.494;5.386;2023-01-26T06:35:50;102333.59;;;18.11;39.58
61710;BME280;47633;51.494;5.386;2023-01-26T06:38:16;102339.84;;;18.10;39.59
61710;BME280;47633;51.494;5.386;2023-01-26T06:40:41;102333.69;;;18.10;39.71
61710;BME280;47633;51.494;5.386;2023-01-26T06:43:06;102336.31;;;18.10;40.12
61710;BME280;47633;51.494;5.386;2023-01-26T06:45:32;102339.75;;;18.12;39.66
61710;BME280;47633;51.494;5.386;2023-01-26T06:47:57;102331.13;;;18.08;39.34
61710;BME280;47633;51.494;5.386;2023-01-26T06:50:25;102342.38;;;18.12;39.92
61710;BME280;47633;51.494;5.386;2023-01-26T06:52:55;102343.41;;;18.09;39.89
61710;BME280;47633;51.494;5.386;2023-01-26T06:55:30;102341.50;;;18.11;40.06
61710;BME280;47633;51.494;5.386;2023-01-26T06:57:56;102335.47;;;18.09;40.02
61710;BME280;47633;51.494;5.386;2023-01-26T07:00:21;102345.19;;;18.09;40.06
61710;BME280;47633;51.494;5.386;2023-01-26T07:02:47;102345.94;;;18.11;40.12
61710;BME280;47633;51.494;5.386;2023-01-26T07:05:12;102346.03;;;18.09;40.17
61710;BME280;47633;51.494;5.386;2023-01-26T07:07:37;102340.75;;;18.09;40.44
61710;BME280;47633;51.494;5.386;2023-01-26T07:10:03;102341.69;;;18.08;40.46
61710;BME280;47633;51.494;5.386;2023-01-26T07:12:41;102347.84;;;18.09;40.64
61710;BME280;47633;51.494;5.386;2023-01-26T07:15:08;102344.41;;;18.07;40.55
61710;BME280;47633;51.494;5.386;2023-01-26T07:17:34;102355.75;;;18.09;40.66
61710;BME280;47633;51.494;5.386;2023-01-26T07:19:59;102360.25;;;18.07;40.67
61710;BME280;47633;51.494;5.386;2023-01-26T07:22:24;102355.66;;;18.10;40.98
61710;BME280;47633;51.494;5.386;2023-01-26T07:24:49;102359.22;;;18.09;40.79
61710;BME280;47633;51.494;5.386;2023-01-26T07:27:15;102355.75;;;18.09;40.93
61710;BME280;47633;51.494;5.386;2023-01-26T07:29:40;102353.94;;;18.09;41.04
61710;BME280;47633;51.494;5.386;2023-01-26T07:32:05;102346.28;;;18.05;41.13
61710;BME280;47633;51.494;5.386;2023-01-26T07:34:31;102352.16;;;18.10;41.30
61710;BME280;47633;51.494;5.386;2023-01-26T07:36:56;102359.06;;;18.12;41.57
61710;BME280;47633;51.494;5.386;2023-01-26T07:39:21;102355.56;;;18.12;41.37
61710;BME280;47633;51.494;5.386;2023-01-26T07:41:48;102365.00;;;18.16;41.62
61710;BME280;47633;51.494;5.386;2023-01-26T07:44:13;102352.84;;;18.13;41.48
61710;BME280;47633;51.494;5.386;2023-01-26T07:46:39;102363.22;;;18.17;41.75
61710;BME280;47633;51.494;5.386;2023-01-26T07:49:05;102356.16;;;18.17;42.08
61710;BME280;47633;51.494;5.386;2023-01-26T07:51:30;102364.75;;;18.21;41.58
61710;BME280;47633;51.494;5.386;2023-01-26T07:53:56;102360.59;;;18.17;41.85
61710;BME280;47633;51.494;5.386;2023-01-26T07:56:23;102367.38;;;18.21;41.68
61710;BME280;47633;51.494;5.386;2023-01-26T07:58:52;102370.94;;;18.20;41.88
61710;BME280;47633;51.494;5.386;2023-01-26T08:01:18;102373.50;;;18.21;41.80
61710;BME280;47633;51.494;5.386;2023-01-26T08:03:44;102371.63;;;18.23;41.59
61710;BME280;47633;51.494;5.386;2023-01-26T08:06:12;102382.78;;;18.28;41.25
61710;BME280;47633;51.494;5.386;2023-01-26T08:08:38;102386.06;;;18.32;41.73
61710;BME280;47633;51.494;5.386;2023-01-26T08:11:08;102371.38;;;18.28;41.68
61710;BME280;47633;51.494;5.386;2023-01-26T08:13:34;102379.88;;;18.33;41.94
61710;BME280;47633;51.494;5.386;2023-01-26T08:16:00;102381.66;;;18.33;42.01
61710;BME280;47633;51.494;5.386;2023-01-26T08:18:26;102383.44;;;18.32;42.31
61710;BME280;47633;51.494;5.386;2023-01-26T08:20:53;102386.06;;;18.32;42.15
61710;BME280;47633;51.494;5.386;2023-01-26T08:23:18;102389.13;;;18.40;42.04
61710;BME280;47633;51.494;5.386;2023-01-26T08:25:44;102393.28;;;18.44;42.12
61710;BME280;47633;51.494;5.386;2023-01-26T08:28:09;102394.22;;;18.43;42.13
61710;BME280;47633;51.494;5.386;2023-01-26T08:30:34;102387.09;;;18.45;42.24
61710;BME280;47633;51.494;5.386;2023-01-26T08:33:01;102391.41;;;18.46;42.08
61710;BME280;47633;51.494;5.386;2023-01-26T08:35:27;102392.44;;;18.44;41.98
61710;BME280;47633;51.494;5.386;2023-01-26T08:37:52;102402.91;;;18.45;42.08
61710;BME280;47633;51.494;5.386;2023-01-26T08:40:17;102392.63;;;18.41;42.30
61710;BME280;47633;51.494;5.386;2023-01-26T08:42:43;102398.56;;;18.44;42.09
61710;BME280;47633;51.494;5.386;2023-01-26T08:45:08;102396.59;;;18.48;42.27
61710;BME280;47633;51.494;5.386;2023-01-26T08:47:34;102383.84;;;18.40;42.51
61710;BME280;47633;51.494;5.386;2023-01-26T08:49:59;102400.09;;;18.48;42.50
61710;BME280;47633;51.494;5.386;2023-01-26T08:52:24;102404.50;;;18.48;42.50
61710;BME280;47633;51.494;5.386;2023-01-26T08:54:49;102402.75;;;18.48;42.63
61710;BME280;47633;51.494;5.386;2023-01-26T08:57:15;102395.09;;;18.44;42.77
61710;BME280;47633;51.494;5.386;2023-01-26T08:59:40;102405.38;;;18.48;42.41
61710;BME280;47633;51.494;5.386;2023-01-26T09:02:08;102402.75;;;18.48;42.76
61710;BME280;47633;51.494;5.386;2023-01-26T09:04:34;102406.81;;;18.54;42.60
61710;BME280;47633;51.494;5.386;2023-01-26T09:06:59;102398.22;;;18.51;42.71
61710;BME280;47633;51.494;5.386;2023-01-26T09:09:24;102400.78;;;18.52;42.51
61710;BME280;47633;51.494;5.386;2023-01-26T09:11:49;102404.06;;;18.56;42.28
61710;BME280;47633;51.494;5.386;2023-01-26T09:14:15;102406.81;;;18.54;42.46
61710;BME280;47633;51.494;5.386;2023-01-26T09:16:40;102399.81;;;18.53;42.27
61710;BME280;47633;51.494;5.386;2023-01-26T09:19:06;102399.81;;;18.53;42.68
61710;BME280;47633;51.494;5.386;2023-01-26T09:21:31;102406.03;;;18.52;42.45
61710;BME280;47633;51.494;5.386;2023-01-26T09:23:56;102404.50;;;18.48;42.36
61710;BME280;47633;51.494;5.386;2023-01-26T09:26:21;102413.31;;;18.48;42.60
61710;BME280;47633;51.494;5.386;2023-01-26T09:28:51;102395.09;;;18.44;42.68
61710;BME280;47633;51.494;5.386;2023-01-26T09:31:17;102407.41;;;18.43;42.47
61710;BME280;47633;51.494;5.386;2023-01-26T09:33:42;102415.16;;;18.46;42.72
61710;BME280;47633;51.494;5.386;2023-01-26T09:36:09;102414.31;;;18.46;42.52
61710;BME280;47633;51.494;5.386;2023-01-26T09:38:35;102412.53;;;18.46;42.25
61710;BME280;47633;51.494;5.386;2023-01-26T09:41:21;102411.78;;;18.44;42.29
61710;BME280;47633;51.494;5.386;2023-01-26T09:43:52;102413.66;;;18.42;42.20
61710;BME280;47633;51.494;5.386;2023-01-26T09:46:26;102418.75;;;18.45;42.09
61710;BME280;47633;51.494;5.386;2023-01-26T09:49:04;102417.06;;;18.44;42.11
61710;BME280;47633;51.494;5.386;2023-01-26T09:51:35;102416.47;;;18.39;42.37
61710;BME280;47633;51.494;5.386;2023-01-26T09:54:08;102414.84;;;18.37;42.33
61710;BME280;47633;51.494;5.386;2023-01-26T09:56:36;102419.13;;;18.39;42.32
61710;BME280;47633;51.494;5.386;2023-01-26T10:04:42;102412.47;;;18.32;42.22
61710;BME280;47633;51.494;5.386;2023-01-26T10:07:11;102413.13;;;18.36;42.12
61710;BME280;47633;51.494;5.386;2023-01-26T10:09:38;102417.56;;;18.35;42.09
61710;BME280;47633;51.494;5.386;2023-01-26T10:14:40;102413.03;;;18.37;41.16
61710;BME280;47633;51.494;5.386;2023-01-26T10:17:15;102415.91;;;18.34;41.32
61710;BME280;47633;51.494;5.386;2023-01-26T10:19:53;102413.25;;;18.34;41.99
61710;BME280;47633;51.494;5.386;2023-01-26T10:22:31;102405.50;;;18.31;41.77
61710;BME280;47633;51.494;5.386;2023-01-26T10:25:00;102409.47;;;18.38;41.71
61710;BME280;47633;51.494;5.386;2023-01-26T10:27:27;102403.44;;;18.36;41.74
61710;BME280;47633;51.494;5.386;2023-01-26T10:29:53;102406.75;;;18.40;42.10
61710;BME280;47633;51.494;5.386;2023-01-26T10:32:18;102406.94;;;18.37;42.15
61710;BME280;47633;51.494;5.386;2023-01-26T10:34:45;102415.34;;;18.43;42.16
61710;BME280;47633;51.494;5.386;2023-01-26T10:37:25;102416.22;;;18.44;42.43
61710;BME280;47633;51.494;5.386;2023-01-26T10:40:03;102413.47;;;18.45;42.49
61710;BME280;47633;51.494;5.386;2023-01-26T10:42:33;102410.16;;;18.42;42.38
61710;BME280;47633;51.494;5.386;2023-01-26T10:45:01;102421.31;;;18.47;42.61
61710;BME280;47633;51.494;5.386;2023-01-26T10:47:28;102409.72;;;18.49;42.77
61710;BME280;47633;51.494;5.386;2023-01-26T10:50:14;102414.63;;;18.56;42.93
61710;BME280;47633;51.494;5.386;2023-01-26T10:52:58;102417.00;;;18.60;43.05
61710;BME280;47633;51.494;5.386;2023-01-26T10:55:25;102419.56;;;18.62;43.21
61710;BME280;47633;51.494;5.386;2023-01-26T10:57:51;102421.94;;;18.66;43.11
61710;BME280;47633;51.494;5.386;2023-01-26T11:00:28;102413.91;;;18.68;43.23
61710;BME280;47633;51.494;5.386;2023-01-26T11:05:28;102409.03;;;18.76;43.47
61710;BME280;47633;51.494;5.386;2023-01-26T11:07:55;102409.03;;;18.76;43.57
61710;BME280;47633;51.494;5.386;2023-01-26T11:10:33;102406.66;;;18.72;43.71
61710;BME280;47633;51.494;5.386;2023-01-26T11:13:15;102398.06;;;18.68;43.63
61710;BME280;47633;51.494;5.386;2023-01-26T11:15:47;102409.88;;;18.77;43.30
61710;BME280;47633;51.494;5.386;2023-01-26T11:20:58;102413.19;;;18.80;43.53
61710;BME280;47633;51.494;5.386;2023-01-26T11:26:08;102414.03;;;18.81;43.58
61710;BME280;47633;51.494;5.386;2023-01-26T11:31:27;102418.03;;;18.88;43.37
61710;BME280;47633;51.494;5.386;2023-01-26T11:40:00;102415.13;;;19.07;43.21
61710;BME280;47633;51.494;5.386;2023-01-26T11:48:05;102408.34;;;19.03;43.55
61710;BME280;47633;51.494;5.386;2023-01-26T11:53:18;102405.72;;;19.03;43.56
61710;BME280;47633;51.494;5.386;2023-01-26T11:55:57;102389.38;;;18.96;43.33
61710;BME280;47633;51.494;5.386;2023-01-26T11:58:38;102395.41;;;18.98;43.59
61710;BME280;47633;51.494;5.386;2023-01-26T12:01:10;102388.34;;;18.99;43.63
61710;BME280;47633;51.494;5.386;2023-01-26T12:03:50;102395.34;;;19.00;43.49
61710;BME280;47633;51.494;5.386;2023-01-26T12:06:36;102382.31;;;18.97;43.63
61710;BME280;47633;51.494;5.386;2023-01-26T12:09:12;102389.22;;;18.99;43.49
61710;BME280;47633;51.494;5.386;2023-01-26T12:12:18;102386.56;;;18.99;43.39
61710;BME280;47633;51.494;5.386;2023-01-26T12:14:56;102381.19;;;19.01;43.31
61710;BME280;47633;51.494;5.386;2023-01-26T12:22:34;102372.78;;;19.09;43.13
61710;BME280;47633;51.494;5.386;2023-01-26T12:25:18;102368.53;;;19.06;43.11
61710;BME280;47633;51.494;5.386;2023-01-26T12:27:53;102372.03;;;19.07;43.12
61710;BME280;47633;51.494;5.386;2023-01-26T12:30:33;102358.91;;;19.05;43.07
61710;BME280;47633;51.494;5.386;2023-01-26T12:33:00;102371.75;;;19.11;43.02
61710;BME280;47633;51.494;5.386;2023-01-26T12:44:13;102345.13;;;19.14;42.88
61710;BME280;47633;51.494;5.386;2023-01-26T12:46:44;102337.38;;;19.11;42.82
61710;BME280;47633;51.494;5.386;2023-01-26T12:49:36;102339.00;;;19.14;42.80
61710;BME280;47633;51.494;5.386;2023-01-26T12:52:17;102338.81;;;19.17;42.77
61710;BME280;47633;51.494;5.386;2023-01-26T12:54:52;102333.53;;;19.17;42.65
61710;BME280;47633;51.494;5.386;2023-01-26T12:57:22;102336.72;;;19.22;42.77
61710;BME280;47633;51.494;5.386;2023-01-26T12:59:49;102336.72;;;19.22;42.72
61710;BME280;47633;51.494;5.386;2023-01-26T13:02:33;102334.00;;;19.24;42.55
61710;BME280;47633;51.494;5.386;2023-01-26T13:05:01;102324.16;;;19.26;42.51
61710;BME280;47633;51.494;5.386;2023-01-26T13:07:34;102328.50;;;19.27;42.60
61710;BME280;47633;51.494;5.386;2023-01-26T13:12:57;102319.81;;;19.25;42.63
61710;BME280;47633;51.494;5.386;2023-01-26T13:15:26;102326.81;;;19.26;42.55
61710;BME280;47633;51.494;5.386;2023-01-26T13:17:57;102318.03;;;19.25;42.68
61710;BME280;47633;51.494;5.386;2023-01-26T13:20:39;102315.28;;;19.27;42.33
61710;BME280;47633;51.494;5.386;2023-01-26T13:28:39;102316.78;;;19.31;42.29
61710;BME280;47633;51.494;5.386;2023-01-26T13:31:05;102316.78;;;19.31;42.21
61710;BME280;47633;51.494;5.386;2023-01-26T13:33:30;102318.50;;;19.32;42.22
61710;BME280;47633;51.494;5.386;2023-01-26T13:35:57;102307.19;;;19.30;41.99
61710;BME280;47633;51.494;5.386;2023-01-26T13:38:36;102303.03;;;19.53;41.67
61710;BME280;47633;51.494;5.386;2023-01-26T13:41:17;102303.00;;;19.67;41.42
61710;BME280;47633;51.494;5.386;2023-01-26T13:43:49;102306.13;;;19.60;41.66
61710;BME280;47633;51.494;5.386;2023-01-26T13:48:49;102308.88;;;19.58;41.83
61710;BME280;47633;51.494;5.386;2023-01-26T13:51:21;102312.03;;;19.50;41.98
61710;BME280;47633;51.494;5.386;2023-01-26T13:54:11;102319.00;;;19.51;41.89
61710;BME280;47633;51.494;5.386;2023-01-26T13:56:39;102319.88;;;19.52;42.14
61710;BME280;47633;51.494;5.386;2023-01-26T14:01:47;102318.06;;;19.52;42.16
61710;BME280;47633;51.494;5.386;2023-01-26T14:04:19;102313.06;;;19.48;42.20
61710;BME280;47633;51.494;5.386;2023-01-26T14:06:48;102313.72;;;19.51;41.86